createdAt,value
2018-10-03T00:05:53.050Z,65.8
2018-10-03T00:21:07.869Z,66.5
2018-10-03T00:36:22.708Z,66.3
2018-10-03T00:51:37.601Z,66.3
2018-10-03T01:06:52.163Z,66.4
2018-10-03T01:22:07.286Z,66.3
2018-10-03T01:37:22.158Z,64
2018-10-03T01:52:36.920Z,62.2
2018-10-03T02:07:43.657Z,59.1
2018-10-03T02:23:06.775Z,54
2018-10-03T02:38:21.828Z,50.7
2018-10-03T02:53:36.061Z,49.1
2018-10-03T03:08:50.835Z,50.2
2018-10-03T03:24:03.507Z,51.5
2018-10-03T03:39:20.121Z,51.9
2018-10-03T03:54:34.649Z,53.5
2018-10-03T04:09:49.239Z,52.7
2018-10-03T04:24:54.003Z,53.2
2018-10-03T04:40:18.208Z,51.5
2018-10-03T04:55:32.911Z,51.9
2018-10-03T05:10:47.781Z,53.5
2018-10-03T05:26:02.499Z,50.2
2018-10-03T05:41:13.389Z,45.8
2018-10-03T05:56:32.025Z,44.2
2018-10-03T06:11:46.940Z,43.7
2018-10-03T06:27:01.892Z,42
2018-10-03T06:42:05.518Z,41.5
2018-10-03T06:57:31.855Z,41.8
2018-10-03T07:12:47.004Z,50
2018-10-03T07:28:01.727Z,54.7
2018-10-03T07:43:16.449Z,56.2
2018-10-03T07:58:26.783Z,54.2
2018-10-03T08:13:46.291Z,51.2
2018-10-03T08:29:01.580Z,48.4
2018-10-03T08:44:16.898Z,45
2018-10-03T08:59:20.702Z,42.8
2018-10-03T09:14:47.952Z,40.7
2018-10-03T09:30:03.782Z,38.6
2018-10-03T09:45:19.628Z,37.3
2018-10-03T10:00:36.276Z,38.4
2018-10-03T10:15:46.737Z,38
2018-10-03T10:31:07.376Z,37.2
2018-10-03T10:46:23.391Z,38.9
2018-10-03T11:01:39.392Z,44.9
2018-10-03T11:16:42.487Z,38.8
2018-10-03T11:32:11.401Z,48.8
2018-10-03T11:47:27.305Z,50.5
2018-10-03T12:02:42.306Z,47.4
2018-10-03T12:17:57.853Z,57.2
2018-10-03T12:33:07.716Z,57.9
2018-10-03T12:48:28.659Z,56.6
2018-10-03T13:03:44.135Z,50.5
2018-10-03T13:19:00.234Z,44.2
2018-10-03T13:34:16.700Z,39.9
2018-10-03T13:49:32.692Z,36.8
2018-10-03T14:04:50.565Z,36
2018-10-03T14:20:08.098Z,37.8
2018-10-03T14:35:23.494Z,39
2018-10-03T14:50:29.209Z,45.2
2018-10-03T15:05:55.266Z,47.8
2018-10-03T15:21:11.715Z,47.1
2018-10-03T15:36:26.983Z,45.2
2018-10-03T15:51:42.746Z,47.1
2018-10-03T16:06:54.424Z,49.9
2018-10-03T16:22:13.497Z,59
2018-10-03T16:37:28.613Z,60.6
2018-10-03T16:52:43.896Z,61.3
2018-10-03T17:07:47.855Z,63.3
2018-10-03T17:23:14.403Z,58.8
2018-10-03T17:38:29.401Z,58.4
2018-10-03T17:53:43.692Z,58.5
2018-10-03T18:08:58.812Z,58.8
2018-10-03T18:24:08.828Z,59.1
2018-10-03T18:39:29.414Z,60.4
2018-10-03T18:54:44.643Z,60
2018-10-03T19:09:59.538Z,60.5
2018-10-03T19:25:14.688Z,60.2
2018-10-03T19:40:30.138Z,60.2
2018-10-03T19:55:43.536Z,61
2018-10-03T20:10:58.826Z,60.2
2018-10-03T20:26:13.623Z,60.6
2018-10-03T20:41:23.696Z,59.8
2018-10-03T20:56:43.270Z,58.8
2018-10-03T21:11:57.741Z,59.3
2018-10-03T21:27:11.899Z,58.2
2018-10-03T21:42:14.735Z,58.6
2018-10-03T21:57:41.747Z,58.1
2018-10-03T22:12:56.633Z,58.2
2018-10-03T22:28:11.563Z,57.9
2018-10-03T22:43:26.365Z,58.5
2018-10-03T22:58:35.958Z,58.7
2018-10-03T23:13:55.851Z,59
2018-10-03T23:29:10.911Z,58.6
2018-10-03T23:44:25.144Z,59.4
2018-10-03T23:59:39.727Z,59.9
